Time;durP1;ratioP1;P1;durP2;ratioP2;P2;SDS_P1;SDS_P2;PMS_P1;PMS_P2;Temp;Humidity;BMP_temperature;BMP_pressure;BME280_temperature;BME280_humidity;BME280_pressure;Samples;Min_cycle;Max_cycle;Signal;HPM_P1;HPM_P2
2022/04/18 00:00:45;;;;;;;3.90;2.37;;;;;;;;;;1794461;80;21507;-70
2022/04/18 00:03:13;;;;;;;3.50;1.98;;;;;;;;;;1794756;79;21043;-70
2022/04/18 00:05:40;;;;;;;4.10;2.33;;;;;;;;;;1792616;80;21056;-70
2022/04/18 00:08:07;;;;;;;3.08;2.60;;;;;;;;;;1789493;80;21056;-69
2022/04/18 00:10:34;;;;;;;3.98;2.27;;;;;;;;;;1783031;80;21084;-70
2022/04/18 00:13:01;;;;;;;4.35;2.30;;;;;;;;;;1782265;80;21031;-71
2022/04/18 00:15:27;;;;;;;3.42;2.10;;;;;;;;;;1780942;80;21116;-71
2022/04/18 00:17:54;;;;;;;4.17;2.40;;;;;;;;;;1780862;80;21029;-71
2022/04/18 00:20:22;;;;;;;3.70;2.50;;;;;;;;;;1780467;80;21516;-70
2022/04/18 00:22:50;;;;;;;4.12;2.70;;;;;;;;;;1778679;81;21099;-70
2022/04/18 00:25:17;;;;;;;3.72;2.37;;;;;;;;;;1778792;80;21065;-70
2022/04/18 00:27:45;;;;;;;4.05;2.62;;;;;;;;;;1778455;80;21187;-70
2022/04/18 00:30:14;;;;;;;3.62;2.12;;;;;;;;;;1778882;80;21053;-70
2022/04/18 00:32:41;;;;;;;5.28;2.62;;;;;;;;;;1778934;80;21119;-70
2022/04/18 00:35:09;;;;;;;4.60;2.77;;;;;;;;;;1783267;80;21064;-70
2022/04/18 00:37:39;;;;;;;3.67;2.33;;;;;;;;;;1784472;80;21056;-70
2022/04/18 00:40:04;;;;;;;4.37;2.30;;;;;;;;;;1782954;80;22040;-71
2022/04/18 00:42:33;;;;;;;4.12;2.30;;;;;;;;;;1783974;80;21029;-70
2022/04/18 00:45:01;;;;;;;3.42;2.37;;;;;;;;;;1784168;80;21008;-71
2022/04/18 00:47:28;;;;;;;6.67;3.05;;;;;;;;;;1778450;80;21083;-71
2022/04/18 00:49:56;;;;;;;2.55;2.22;;;;;;;;;;1778741;80;21088;-71
2022/04/18 00:52:24;;;;;;;6.25;2.70;;;;;;;;;;1778536;80;21314;-70
2022/04/18 00:54:50;;;;;;;5.97;3.12;;;;;;;;;;1778432;81;20989;-71
2022/04/18 00:57:16;;;;;;;6.45;2.65;;;;;;;;;;1756616;81;22081;-71
2022/04/18 00:59:44;;;;;;;5.03;2.80;;;;;;;;;;1779094;80;21009;-71
2022/04/18 01:05:06;;;;;;;3.85;2.33;;;;;;;;;;1675297;84;21116;-73
2022/04/18 01:07:34;;;;;;;4.10;2.65;;;;;;;;;;1638182;87;21639;-73
2022/04/18 01:10:02;;;;;;;4.08;2.50;;;;;;;;;;1700364;83;21068;-73
2022/04/18 01:12:29;;;;;;;6.65;3.05;;;;;;;;;;1623640;86;21080;-72
2022/04/18 01:15:00;;;;;;;3.83;2.17;;;;;;;;;;1667035;84;21016;-73
2022/04/18 01:17:44;;;;;;;3.80;2.30;;;;;;;;;;1669196;86;21699;-73
2022/04/18 01:20:22;;;;;;;4.10;2.45;;;;;;;;;;1696318;83;21503;-71
2022/04/18 01:22:52;;;;;;;4.65;2.52;;;;;;;;;;1680646;83;21572;-72
2022/04/18 01:30:53;;;;;;;4.37;2.47;;;;;;;;;;1713287;83;21056;-73
2022/04/18 01:33:19;;;;;;;4.60;2.52;;;;;;;;;;1722156;83;21019;-73
2022/04/18 01:35:48;;;;;;;3.55;2.35;;;;;;;;;;1722200;83;21064;-73
2022/04/18 01:38:14;;;;;;;3.83;2.40;;;;;;;;;;1722363;83;21028;-73
2022/04/18 01:40:41;;;;;;;3.85;2.50;;;;;;;;;;1720248;83;21068;-72
2022/04/18 01:43:07;;;;;;;3.20;2.27;;;;;;;;;;1717906;83;21024;-71
2022/04/18 01:45:34;;;;;;;4.55;2.20;;;;;;;;;;1665855;85;21061;-71
2022/04/18 01:48:03;;;;;;;4.20;2.50;;;;;;;;;;1665316;85;21018;-71
2022/04/18 01:50:30;;;;;;;3.85;2.50;;;;;;;;;;1697056;83;21770;-71
2022/04/18 01:52:56;;;;;;;3.47;2.47;;;;;;;;;;1666705;85;21116;-71
2022/04/18 01:55:22;;;;;;;4.60;2.52;;;;;;;;;;1721462;83;21047;-71
2022/04/18 01:57:50;;;;;;;3.58;2.42;;;;;;;;;;1711625;83;21084;-71
2022/04/18 02:00:16;;;;;;;5.35;2.52;;;;;;;;;;1679807;83;21016;-71
2022/04/18 02:02:45;;;;;;;4.97;2.27;;;;;;;;;;1720587;83;21064;-71
2022/04/18 02:05:12;;;;;;;6.58;2.45;;;;;;;;;;1703138;83;21081;-71
2022/04/18 02:07:40;;;;;;;6.58;2.80;;;;;;;;;;1707627;84;21140;-71
2022/04/18 02:10:08;;;;;;;6.00;3.20;;;;;;;;;;1680309;85;21565;-72
2022/04/18 02:12:35;;;;;;;8.43;3.10;;;;;;;;;;1673345;85;21606;-72
2022/04/18 02:15:04;;;;;;;2.98;2.02;;;;;;;;;;1654100;87;21057;-72
2022/04/18 02:17:34;;;;;;;5.37;3.20;;;;;;;;;;1634239;88;21144;-72
2022/04/18 02:20:00;;;;;;;6.60;3.33;;;;;;;;;;1662069;86;21170;-72
2022/04/18 02:22:27;;;;;;;6.60;3.60;;;;;;;;;;1661556;85;20990;-72
2022/04/18 02:24:55;;;;;;;7.35;3.72;;;;;;;;;;1656349;87;21520;-72
2022/04/18 02:27:22;;;;;;;8.75;3.50;;;;;;;;;;1662251;86;21602;-72
2022/04/18 02:29:51;;;;;;;5.42;3.08;;;;;;;;;;1677042;85;21045;-72
2022/04/18 02:35:02;;;;;;;3.65;2.25;;;;;;;;;;1665656;85;21604;-72
2022/04/18 02:37:29;;;;;;;3.98;2.65;;;;;;;;;;1656077;87;21045;-72
2022/04/18 02:39:59;;;;;;;3.02;2.10;;;;;;;;;;1664316;85;20970;-72
2022/04/18 02:42:24;;;;;;;4.35;2.33;;;;;;;;;;1655887;87;21057;-72
2022/04/18 02:44:50;;;;;;;5.45;2.60;;;;;;;;;;1662425;86;21076;-72
2022/04/18 02:47:18;;;;;;;6.50;2.80;;;;;;;;;;1660454;86;21015;-72
2022/04/18 02:49:46;;;;;;;4.28;2.42;;;;;;;;;;1607938;88;21085;-72
2022/04/18 02:52:16;;;;;;;4.85;2.58;;;;;;;;;;1659113;86;21058;-72
2022/04/18 02:54:44;;;;;;;2.83;2.25;;;;;;;;;;1628606;88;21093;-72
2022/04/18 02:57:12;;;;;;;3.77;2.58;;;;;;;;;;1642090;87;21080;-72
2022/04/18 02:59:39;;;;;;;5.20;2.40;;;;;;;;;;1616471;88;21628;-72
2022/04/18 03:02:06;;;;;;;3.50;2.37;;;;;;;;;;1663794;84;20982;-72
2022/04/18 03:04:33;;;;;;;4.12;2.10;;;;;;;;;;1634517;86;21079;-72
2022/04/18 03:07:00;;;;;;;2.77;2.10;;;;;;;;;;1663907;86;21019;-72
2022/04/18 03:09:28;;;;;;;5.80;3.08;;;;;;;;;;1636682;88;21070;-71
2022/04/18 03:11:56;;;;;;;4.28;2.35;;;;;;;;;;1663884;86;21070;-71
2022/04/18 03:14:23;;;;;;;3.15;2.30;;;;;;;;;;1661236;86;21055;-72
2022/04/18 03:17:00;;;;;;;3.92;2.10;;;;;;;;;;1660281;86;21110;-72
2022/04/18 03:19:26;;;;;;;4.00;2.20;;;;;;;;;;1661111;86;21064;-72
2022/04/18 03:21:56;;;;;;;3.30;2.12;;;;;;;;;;1660466;86;21073;-72
2022/04/18 03:24:22;;;;;;;5.40;2.65;;;;;;;;;;1680053;85;21077;-72
2022/04/18 03:26:50;;;;;;;3.70;2.27;;;;;;;;;;1671616;85;21074;-72
2022/04/18 03:29:19;;;;;;;3.58;2.50;;;;;;;;;;1677394;85;21128;-71
2022/04/18 03:31:45;;;;;;;2.37;1.98;;;;;;;;;;1630581;88;21199;-71
2022/04/18 03:34:12;;;;;;;3.62;2.60;;;;;;;;;;1634216;88;21087;-71
2022/04/18 03:42:11;;;;;;;4.12;2.35;;;;;;;;;;1663733;86;21093;-73
2022/04/18 03:44:43;;;;;;;3.05;2.35;;;;;;;;;;1635346;88;21094;-73
2022/04/18 03:47:13;;;;;;;4.20;2.30;;;;;;;;;;1669048;86;21035;-72
2022/04/18 03:49:39;;;;;;;2.83;1.95;;;;;;;;;;1660307;86;21016;-73
2022/04/18 03:52:07;;;;;;;3.02;2.20;;;;;;;;;;1655386;86;21052;-73
2022/04/18 03:54:35;;;;;;;6.35;2.30;;;;;;;;;;1679326;85;21393;-73
2022/04/18 03:57:02;;;;;;;3.90;2.30;;;;;;;;;;1647871;87;21100;-73
2022/04/18 03:59:39;;;;;;;3.83;2.17;;;;;;;;;;1661745;86;21621;-72
2022/04/18 04:02:06;;;;;;;3.80;2.55;;;;;;;;;;1663311;85;21065;-74
2022/04/18 04:04:35;;;;;;;4.45;2.58;;;;;;;;;;1661780;86;21138;-73
2022/04/18 04:07:03;;;;;;;3.22;2.17;;;;;;;;;;1672077;85;21580;-73
2022/04/18 04:09:29;;;;;;;4.75;2.50;;;;;;;;;;1664135;85;21128;-74
2022/04/18 04:11:56;;;;;;;3.65;2.20;;;;;;;;;;1661054;86;21124;-73
2022/04/18 04:14:23;;;;;;;5.40;2.67;;;;;;;;;;1662694;86;21060;-73
2022/04/18 04:16:49;;;;;;;5.67;2.62;;;;;;;;;;1635786;88;21061;-73
2022/04/18 04:19:17;;;;;;;4.17;2.72;;;;;;;;;;1634115;88;21022;-73
2022/04/18 04:21:43;;;;;;;5.70;2.70;;;;;;;;;;1662800;86;21084;-73
2022/04/18 04:24:09;;;;;;;4.37;2.70;;;;;;;;;;1643404;86;21045;-72
2022/04/18 04:26:37;;;;;;;5.33;3.17;;;;;;;;;;1663026;85;20970;-73
2022/04/18 04:29:03;;;;;;;5.53;2.60;;;;;;;;;;1655009;87;21068;-73
2022/04/18 04:31:31;;;;;;;6.28;3.25;;;;;;;;;;1637990;87;21117;-72
2022/04/18 04:34:00;;;;;;;5.78;2.67;;;;;;;;;;1639347;87;21116;-73
2022/04/18 04:36:27;;;;;;;5.47;3.10;;;;;;;;;;1664678;85;21549;-73
2022/04/18 04:38:54;;;;;;;4.62;2.42;;;;;;;;;;1656550;87;21024;-73
2022/04/18 04:41:22;;;;;;;4.75;3.02;;;;;;;;;;1626974;87;21125;-72
2022/04/18 04:43:52;;;;;;;5.03;3.05;;;;;;;;;;1636519;87;21049;-73
2022/04/18 04:46:21;;;;;;;4.72;2.65;;;;;;;;;;1635612;87;21096;-73
2022/04/18 04:48:49;;;;;;;5.25;2.70;;;;;;;;;;1634038;87;21058;-73
2022/04/18 04:51:17;;;;;;;3.80;2.42;;;;;;;;;;1679163;85;21567;-73
2022/04/18 04:53:43;;;;;;;4.97;2.92;;;;;;;;;;1677404;85;21078;-73
2022/04/18 04:56:11;;;;;;;4.00;2.45;;;;;;;;;;1666173;85;21033;-73
2022/04/18 04:58:37;;;;;;;3.60;2.70;;;;;;;;;;1677678;84;21473;-73
2022/04/18 05:01:07;;;;;;;4.45;2.50;;;;;;;;;;1655681;87;21564;-73
2022/04/18 05:03:44;;;;;;;3.10;2.40;;;;;;;;;;1677706;85;21041;-71
2022/04/18 05:06:11;;;;;;;4.72;3.12;;;;;;;;;;1675648;85;21041;-71
2022/04/18 05:08:45;;;;;;;3.58;2.25;;;;;;;;;;1669549;85;21049;-72
2022/04/18 05:11:11;;;;;;;3.58;2.27;;;;;;;;;;1680257;85;21068;-73
2022/04/18 05:13:44;;;;;;;4.15;2.62;;;;;;;;;;1678997;85;21177;-74
2022/04/18 05:16:11;;;;;;;3.37;2.55;;;;;;;;;;1681741;85;21056;-72
2022/04/18 05:18:51;;;;;;;4.28;2.50;;;;;;;;;;1681052;85;21061;-71
2022/04/18 05:21:18;;;;;;;3.62;2.45;;;;;;;;;;1672547;85;21485;-72
2022/04/18 05:23:44;;;;;;;5.35;2.52;;;;;;;;;;1656391;87;21105;-73
2022/04/18 05:26:11;;;;;;;3.52;2.60;;;;;;;;;;1612241;88;21080;-73
2022/04/18 05:28:41;;;;;;;3.58;2.35;;;;;;;;;;1665013;84;21096;-73
2022/04/18 05:31:08;;;;;;;3.95;2.50;;;;;;;;;;1662484;86;21060;-73
2022/04/18 05:33:36;;;;;;;2.92;2.42;;;;;;;;;;1662576;86;21093;-73
2022/04/18 05:36:04;;;;;;;4.75;2.77;;;;;;;;;;1635451;88;21041;-73
2022/04/18 05:38:32;;;;;;;4.22;2.58;;;;;;;;;;1637503;87;21081;-76
2022/04/18 05:41:01;;;;;;;3.75;2.27;;;;;;;;;;1662099;86;21093;-75
2022/04/18 05:43:31;;;;;;;3.65;2.47;;;;;;;;;;1656135;85;21021;-73
2022/04/18 05:45:57;;;;;;;3.90;2.50;;;;;;;;;;1662836;84;21043;-73
2022/04/18 05:48:24;;;;;;;3.72;2.58;;;;;;;;;;1659909;85;21540;-72
2022/04/18 05:50:52;;;;;;;4.55;2.90;;;;;;;;;;1648846;87;21041;-73
2022/04/18 05:53:26;;;;;;;5.92;3.25;;;;;;;;;;1635756;88;21080;-73
2022/04/18 05:55:57;;;;;;;4.45;2.58;;;;;;;;;;1635258;86;21175;-73
2022/04/18 05:58:31;;;;;;;3.75;2.50;;;;;;;;;;1635152;88;21064;-73
2022/04/18 06:00:58;;;;;;;3.10;2.50;;;;;;;;;;1655042;87;21065;-73
2022/04/18 06:03:26;;;;;;;3.50;2.47;;;;;;;;;;1641381;86;21136;-73
2022/04/18 06:05:53;;;;;;;3.98;2.75;;;;;;;;;;1637090;87;21124;-73
2022/04/18 06:08:21;;;;;;;4.87;2.83;;;;;;;;;;1664353;84;21116;-73
2022/04/18 06:10:58;;;;;;;3.75;2.67;;;;;;;;;;1660259;85;21057;-73
2022/04/18 06:13:29;;;;;;;4.90;2.77;;;;;;;;;;1651861;86;21073;-72
2022/04/18 06:15:57;;;;;;;4.42;2.58;;;;;;;;;;1668126;86;21522;-73
2022/04/18 06:18:27;;;;;;;4.67;2.60;;;;;;;;;;1659639;86;21663;-71
2022/04/18 06:20:55;;;;;;;4.30;2.90;;;;;;;;;;1636953;86;21563;-71
2022/04/18 06:23:21;;;;;;;5.90;3.05;;;;;;;;;;1659009;86;21255;-72
2022/04/18 06:25:50;;;;;;;4.28;3.02;;;;;;;;;;1631130;88;21034;-73
2022/04/18 06:28:19;;;;;;;3.87;2.70;;;;;;;;;;1635092;87;21102;-73
2022/04/18 06:30:44;;;;;;;4.65;2.72;;;;;;;;;;1630529;88;21112;-73
2022/04/18 06:33:34;;;;;;;4.03;2.62;;;;;;;;;;1660466;86;21521;-72
2022/04/18 06:36:01;;;;;;;5.65;3.00;;;;;;;;;;1634475;87;21036;-72
2022/04/18 06:38:30;;;;;;;4.42;2.50;;;;;;;;;;1644427;86;21011;-73
2022/04/18 06:40:58;;;;;;;4.25;2.80;;;;;;;;;;1637180;87;21108;-73
2022/04/18 06:43:25;;;;;;;3.95;2.60;;;;;;;;;;1645994;87;21114;-73
2022/04/18 06:45:51;;;;;;;4.00;2.77;;;;;;;;;;1659612;85;21902;-72
2022/04/18 06:48:17;;;;;;;3.98;2.70;;;;;;;;;;1668960;86;21548;-72
2022/04/18 06:51:03;;;;;;;5.25;2.90;;;;;;;;;;1598707;88;21034;-73
2022/04/18 06:53:32;;;;;;;4.60;2.80;;;;;;;;;;1574579;90;21106;-73
2022/04/18 06:58:58;;;;;;;4.83;2.83;;;;;;;;;;1683654;84;21103;-72
2022/04/18 07:01:27;;;;;;;4.35;2.87;;;;;;;;;;1658578;86;21552;-72
2022/04/18 07:03:53;;;;;;;5.47;2.80;;;;;;;;;;1658314;86;21631;-73
2022/04/18 07:06:19;;;;;;;5.55;3.08;;;;;;;;;;1660948;86;21053;-74
2022/04/18 07:08:46;;;;;;;5.15;3.22;;;;;;;;;;1667543;86;21220;-74
2022/04/18 07:11:14;;;;;;;5.45;3.05;;;;;;;;;;1648685;86;21083;-74
2022/04/18 07:13:41;;;;;;;3.67;2.80;;;;;;;;;;1637235;87;20996;-74
2022/04/18 07:16:07;;;;;;;3.85;2.83;;;;;;;;;;1674888;86;21000;-74
2022/04/18 07:18:34;;;;;;;3.95;2.72;;;;;;;;;;1674949;86;21014;-75
2022/04/18 07:21:02;;;;;;;3.90;2.65;;;;;;;;;;1651755;86;21073;-72
2022/04/18 07:23:29;;;;;;;5.72;3.45;;;;;;;;;;1673063;86;21109;-73
2022/04/18 07:25:57;;;;;;;6.00;3.25;;;;;;;;;;1643921;87;21005;-72
2022/04/18 07:28:28;;;;;;;5.47;2.90;;;;;;;;;;1664660;86;21105;-73
2022/04/18 07:30:57;;;;;;;5.90;3.00;;;;;;;;;;1664539;86;21052;-72
2022/04/18 07:33:24;;;;;;;4.53;2.90;;;;;;;;;;1666117;86;21096;-74
2022/04/18 07:35:51;;;;;;;5.15;3.22;;;;;;;;;;1661772;86;21583;-72
2022/04/18 07:41:04;;;;;;;4.42;2.90;;;;;;;;;;1665330;86;21044;-73
2022/04/18 07:43:29;;;;;;;4.28;2.87;;;;;;;;;;1665130;86;21065;-73
2022/04/18 07:45:55;;;;;;;4.58;3.05;;;;;;;;;;1665188;86;21068;-73
2022/04/18 07:48:21;;;;;;;5.70;2.87;;;;;;;;;;1640933;86;21598;-73
2022/04/18 07:53:35;;;;;;;6.28;3.10;;;;;;;;;;1661942;86;21061;-73
2022/04/18 07:56:02;;;;;;;4.08;2.67;;;;;;;;;;1655548;86;21064;-73
2022/04/18 07:58:30;;;;;;;4.10;2.98;;;;;;;;;;1649905;86;21057;-73
2022/04/18 08:00:57;;;;;;;5.75;3.42;;;;;;;;;;1647193;87;21036;-74
2022/04/18 08:03:24;;;;;;;4.55;3.17;;;;;;;;;;1693080;83;21009;-73
2022/04/18 08:05:54;;;;;;;4.60;2.87;;;;;;;;;;1681061;84;22283;-73
2022/04/18 08:08:22;;;;;;;5.72;3.00;;;;;;;;;;1645064;87;21088;-73
2022/04/18 08:10:48;;;;;;;4.60;3.08;;;;;;;;;;1664026;86;21098;-74
2022/04/18 08:13:14;;;;;;;4.95;2.92;;;;;;;;;;1655246;86;21060;-73
2022/04/18 08:15:43;;;;;;;4.00;2.55;;;;;;;;;;1670349;86;21555;-73
2022/04/18 08:18:14;;;;;;;5.42;3.17;;;;;;;;;;1672946;86;21143;-72
2022/04/18 08:20:53;;;;;;;4.15;2.75;;;;;;;;;;1646085;85;21566;-73
2022/04/18 08:23:20;;;;;;;3.92;2.70;;;;;;;;;;1645418;87;21057;-72
2022/04/18 08:26:05;;;;;;;3.77;2.80;;;;;;;;;;1651266;86;21048;-72
2022/04/18 08:28:39;;;;;;;6.95;3.22;;;;;;;;;;1644396;87;21068;-73
2022/04/18 08:31:10;;;;;;;3.20;2.52;;;;;;;;;;1632928;86;21558;-74
2022/04/18 08:33:53;;;;;;;6.60;3.05;;;;;;;;;;1620775;87;21084;-73
2022/04/18 08:36:20;;;;;;;4.83;2.87;;;;;;;;;;1645053;87;21551;-74
2022/04/18 08:38:47;;;;;;;4.10;2.87;;;;;;;;;;1660076;86;21075;-74
2022/04/18 08:41:35;;;;;;;4.50;2.62;;;;;;;;;;1645524;87;21060;-74
2022/04/18 08:44:02;;;;;;;3.87;2.58;;;;;;;;;;1645627;87;21033;-73
2022/04/18 08:46:28;;;;;;;4.78;3.05;;;;;;;;;;1645401;87;21119;-74
2022/04/18 08:54:28;;;;;;;3.72;2.77;;;;;;;;;;1645308;87;21571;-73
2022/04/18 08:56:57;;;;;;;5.25;2.90;;;;;;;;;;1640615;87;21112;-73
2022/04/18 08:59:24;;;;;;;5.22;2.80;;;;;;;;;;1644713;87;21048;-74
2022/04/18 09:01:52;;;;;;;3.55;2.40;;;;;;;;;;1645324;87;21152;-74
2022/04/18 09:04:24;;;;;;;3.97;2.30;;;;;;;;;;1642667;87;21036;-74
2022/04/18 09:06:52;;;;;;;3.27;2.42;;;;;;;;;;1641894;87;21058;-74
2022/04/18 09:09:28;;;;;;;3.25;2.45;;;;;;;;;;1641204;87;21145;-73
2022/04/18 09:11:56;;;;;;;4.37;3.02;;;;;;;;;;1633095;88;21412;-73
2022/04/18 09:14:25;;;;;;;5.10;3.05;;;;;;;;;;1633423;88;21105;-73
2022/04/18 09:16:52;;;;;;;5.05;2.80;;;;;;;;;;1607654;88;21041;-74
2022/04/18 09:19:38;;;;;;;4.42;3.33;;;;;;;;;;1551259;92;21050;-74
2022/04/18 09:22:07;;;;;;;5.50;3.33;;;;;;;;;;1546899;93;21539;-74
2022/04/18 09:24:38;;;;;;;4.87;2.95;;;;;;;;;;1599167;87;21044;-74
2022/04/18 09:27:20;;;;;;;4.72;3.00;;;;;;;;;;1643515;87;21570;-74
2022/04/18 09:29:50;;;;;;;4.45;3.08;;;;;;;;;;1628009;88;21092;-72
2022/04/18 09:32:17;;;;;;;4.47;3.00;;;;;;;;;;1627153;88;21029;-73
2022/04/18 09:34:48;;;;;;;7.50;2.77;;;;;;;;;;1624660;88;22341;-73
2022/04/18 09:37:17;;;;;;;6.03;2.90;;;;;;;;;;1601749;88;21588;-74
2022/04/18 09:39:44;;;;;;;3.95;2.92;;;;;;;;;;1647582;87;21544;-74
2022/04/18 09:42:11;;;;;;;4.55;2.92;;;;;;;;;;1647526;87;21053;-74
2022/04/18 09:44:51;;;;;;;4.15;2.67;;;;;;;;;;1623282;87;21022;-73
2022/04/18 09:47:18;;;;;;;3.45;2.25;;;;;;;;;;1647576;86;21053;-73
2022/04/18 09:49:45;;;;;;;3.42;2.40;;;;;;;;;;1647662;87;21057;-72
2022/04/18 09:52:16;;;;;;;4.10;2.90;;;;;;;;;;1647161;87;21128;-72
2022/04/18 09:54:44;;;;;;;4.10;2.87;;;;;;;;;;1639328;87;21087;-73
2022/04/18 09:57:10;;;;;;;3.87;2.47;;;;;;;;;;1677026;85;21026;-73
2022/04/18 09:59:37;;;;;;;3.70;2.50;;;;;;;;;;1688436;85;20977;-73
2022/04/18 10:02:03;;;;;;;3.85;2.67;;;;;;;;;;1687900;85;21674;-73
2022/04/18 10:04:29;;;;;;;3.62;2.42;;;;;;;;;;1672154;85;21598;-73
2022/04/18 10:06:57;;;;;;;4.42;2.40;;;;;;;;;;1631391;86;21033;-73
2022/04/18 10:09:24;;;;;;;3.75;2.45;;;;;;;;;;1671926;86;21039;-73
2022/04/18 10:11:52;;;;;;;5.72;2.98;;;;;;;;;;1671866;85;21084;-73
2022/04/18 10:14:19;;;;;;;4.08;2.37;;;;;;;;;;1671751;86;21076;-73
2022/04/18 10:16:45;;;;;;;4.03;2.45;;;;;;;;;;1669923;84;21536;-73
2022/04/18 10:19:30;;;;;;;4.60;2.35;;;;;;;;;;1647878;86;21076;-73
2022/04/18 10:21:58;;;;;;;3.50;2.27;;;;;;;;;;1632047;87;21049;-73
2022/04/18 10:24:35;;;;;;;4.00;2.47;;;;;;;;;;1707787;84;21063;-74
2022/04/18 10:27:22;;;;;;;4.95;2.42;;;;;;;;;;1708275;84;21079;-74
2022/04/18 10:29:51;;;;;;;4.37;2.60;;;;;;;;;;1708280;84;21101;-73
2022/04/18 10:32:19;;;;;;;4.30;2.62;;;;;;;;;;1684488;84;21523;-73
2022/04/18 10:34:49;;;;;;;5.30;3.17;;;;;;;;;;1641406;87;21052;-73
2022/04/18 10:37:15;;;;;;;3.45;2.70;;;;;;;;;;1641661;87;21012;-73
2022/04/18 10:39:41;;;;;;;4.55;2.80;;;;;;;;;;1643268;86;21604;-73
2022/04/18 10:42:22;;;;;;;4.92;2.77;;;;;;;;;;1680432;85;21052;-73
2022/04/18 10:44:58;;;;;;;4.17;2.85;;;;;;;;;;1673062;85;21080;-73
2022/04/18 10:47:25;;;;;;;3.72;2.42;;;;;;;;;;1673560;85;21128;-72
2022/04/18 10:50:12;;;;;;;4.95;3.10;;;;;;;;;;1664744;86;21615;-72
2022/04/18 10:52:39;;;;;;;4.62;3.08;;;;;;;;;;1672860;85;21021;-72
2022/04/18 10:55:06;;;;;;;4.33;2.72;;;;;;;;;;1690997;85;21064;-73
2022/04/18 10:57:32;;;;;;;3.02;2.25;;;;;;;;;;1691094;85;21451;-73
2022/04/18 10:59:58;;;;;;;4.05;2.35;;;;;;;;;;1691213;85;21084;-73
2022/04/18 11:02:37;;;;;;;3.42;2.47;;;;;;;;;;1690879;85;21128;-73
2022/04/18 11:05:05;;;;;;;3.25;2.10;;;;;;;;;;1673609;84;21020;-73
2022/04/18 11:07:35;;;;;;;155.85;62.55;;;;;;;;;;1636343;87;21114;-73
2022/04/18 11:10:01;;;;;;;90.22;35.03;;;;;;;;;;1676516;84;21084;-73
2022/04/18 11:12:31;;;;;;;69.92;28.07;;;;;;;;;;1712794;83;21025;-73
2022/04/18 11:15:03;;;;;;;24.25;11.00;;;;;;;;;;1712911;83;21065;-73
2022/04/18 11:17:30;;;;;;;13.03;6.28;;;;;;;;;;1701417;83;21092;-73
2022/04/18 11:19:59;;;;;;;39.90;21.80;;;;;;;;;;1665914;86;21041;-73
2022/04/18 11:22:25;;;;;;;9.75;5.15;;;;;;;;;;1718786;83;21143;-73
2022/04/18 11:26:08;;;;;;;11.55;5.45;;;;;;;;;;1802030;79;22760;-73
2022/04/18 11:28:36;;;;;;;6.87;4.20;;;;;;;;;;1762222;81;21024;-73
2022/04/18 11:31:04;;;;;;;7.85;3.33;;;;;;;;;;1761596;81;21040;-73
2022/04/18 11:33:30;;;;;;;7.42;3.37;;;;;;;;;;1791492;80;21023;-75
2022/04/18 11:36:00;;;;;;;4.60;2.58;;;;;;;;;;1796026;80;21051;-75
2022/04/18 11:38:26;;;;;;;4.90;2.70;;;;;;;;;;1781127;80;21028;-74
2022/04/18 11:40:52;;;;;;;9.15;4.35;;;;;;;;;;1787805;80;20984;-73
2022/04/18 11:43:17;;;;;;;5.08;2.90;;;;;;;;;;1796145;80;20969;-73
2022/04/18 11:45:46;;;;;;;8.50;3.85;;;;;;;;;;1778384;80;21042;-72
2022/04/18 11:48:13;;;;;;;6.20;3.20;;;;;;;;;;1760152;81;21481;-73
2022/04/18 11:50:42;;;;;;;7.58;3.65;;;;;;;;;;1729483;81;21104;-73
2022/04/18 11:53:11;;;;;;;13.15;6.33;;;;;;;;;;1714641;84;21046;-73
2022/04/18 11:55:41;;;;;;;6.17;4.12;;;;;;;;;;1728207;83;21055;-73
2022/04/18 11:58:08;;;;;;;5.60;3.02;;;;;;;;;;1715317;83;21025;-72
2022/04/18 12:08:49;;;;;;;5.22;3.15;;;;;;;;;;1682614;83;21097;-73
2022/04/18 12:11:15;;;;;;;5.12;3.00;;;;;;;;;;1679367;85;21032;-74
2022/04/18 12:13:46;;;;;;;4.90;2.95;;;;;;;;;;1694731;84;21037;-74
2022/04/18 12:16:12;;;;;;;5.55;3.08;;;;;;;;;;1713043;83;21032;-73
2022/04/18 12:18:39;;;;;;;4.42;2.60;;;;;;;;;;1694888;84;21499;-74
2022/04/18 12:21:06;;;;;;;6.12;3.30;;;;;;;;;;1699675;84;21081;-74
2022/04/18 12:23:34;;;;;;;6.37;3.12;;;;;;;;;;1693366;84;21074;-74
2022/04/18 12:26:07;;;;;;;3.98;2.80;;;;;;;;;;1676082;85;21045;-74
2022/04/18 12:28:34;;;;;;;4.65;3.00;;;;;;;;;;1669129;85;21119;-73
2022/04/18 12:31:00;;;;;;;5.22;3.02;;;;;;;;;;1674092;85;21025;-73
2022/04/18 12:33:27;;;;;;;4.75;2.55;;;;;;;;;;1718939;83;21037;-73
2022/04/18 12:35:54;;;;;;;4.60;3.00;;;;;;;;;;1718567;83;21137;-73
2022/04/18 12:38:20;;;;;;;5.80;3.10;;;;;;;;;;1713799;82;20965;-73
2022/04/18 12:40:53;;;;;;;4.25;2.77;;;;;;;;;;1718207;82;21088;-73
2022/04/18 12:43:20;;;;;;;3.70;2.70;;;;;;;;;;1718354;83;21049;-74
2022/04/18 12:45:50;;;;;;;3.92;2.40;;;;;;;;;;1718301;83;21073;-73
2022/04/18 12:48:20;;;;;;;6.35;2.70;;;;;;;;;;1718405;83;22096;-71
2022/04/18 12:51:06;;;;;;;5.10;2.67;;;;;;;;;;1726911;82;21079;-72
2022/04/18 12:53:47;;;;;;;5.25;3.00;;;;;;;;;;1718737;83;21085;-72
2022/04/18 12:56:20;;;;;;;4.03;2.55;;;;;;;;;;1750869;82;21036;-72
2022/04/18 12:58:43;;;;;;;6.62;3.05;;;;;;;;;;1752510;82;21546;-73
2022/04/18 13:01:11;;;;;;;4.75;3.20;;;;;;;;;;1753435;81;21084;-73
2022/04/18 13:03:42;;;;;;;5.65;2.45;;;;;;;;;;1731769;82;22206;-73
2022/04/18 13:06:08;;;;;;;4.80;2.50;;;;;;;;;;1727141;82;21005;-74
2022/04/18 13:08:38;;;;;;;4.90;3.20;;;;;;;;;;1719659;82;21052;-74
2022/04/18 13:11:05;;;;;;;4.47;2.42;;;;;;;;;;1714150;83;21084;-74
2022/04/18 13:13:31;;;;;;;4.03;2.35;;;;;;;;;;1712166;83;21018;-74
2022/04/18 13:15:57;;;;;;;4.25;2.62;;;;;;;;;;1725290;82;21009;-74
2022/04/18 13:18:26;;;;;;;6.75;3.55;;;;;;;;;;1720838;82;21416;-75
2022/04/18 13:20:54;;;;;;;6.45;3.67;;;;;;;;;;1736885;81;21001;-74
2022/04/18 13:23:20;;;;;;;6.30;2.92;;;;;;;;;;1727324;82;21025;-75
2022/04/18 13:25:48;;;;;;;4.80;2.58;;;;;;;;;;1733726;82;21520;-74
2022/04/18 13:28:15;;;;;;;6.67;3.20;;;;;;;;;;1753206;82;21507;-74
2022/04/18 13:30:42;;;;;;;6.97;3.52;;;;;;;;;;1753451;81;20976;-74
2022/04/18 13:33:09;;;;;;;4.60;2.40;;;;;;;;;;1753408;82;21414;-74
2022/04/18 13:36:30;;;;;;;4.58;2.70;;;;;;;;;;1750880;81;21019;-74
2022/04/18 13:38:05;;;;;;;4.37;2.37;;;;;;;;;;1720194;82;21556;-74
2022/04/18 13:40:32;;;;;;;4.72;2.67;;;;;;;;;;1746237;82;21005;-74
2022/04/18 13:42:58;;;;;;;4.30;2.98;;;;;;;;;;1753221;82;20999;-73
2022/04/18 13:45:26;;;;;;;6.42;2.90;;;;;;;;;;1753296;82;21526;-74
2022/04/18 13:47:53;;;;;;;11.10;3.40;;;;;;;;;;1747717;82;20985;-74
2022/04/18 13:50:21;;;;;;;4.53;2.90;;;;;;;;;;1753087;81;21496;-85
2022/04/18 13:52:47;;;;;;;4.28;2.17;;;;;;;;;;1722886;81;21096;-79
2022/04/18 13:55:14;;;;;;;3.83;2.52;;;;;;;;;;1718499;83;20970;-79
2022/04/18 13:57:43;;;;;;;5.28;2.80;;;;;;;;;;1717682;82;21536;-79
2022/04/18 14:00:10;;;;;;;7.65;4.05;;;;;;;;;;1718256;82;21829;-78
2022/04/18 14:02:39;;;;;;;17.82;6.95;;;;;;;;;;1717925;83;21100;-79
2022/04/18 14:05:05;;;;;;;29.98;11.45;;;;;;;;;;1718684;82;21080;-79
2022/04/18 14:07:33;;;;;;;18.82;7.30;;;;;;;;;;1743266;82;21024;-78
2022/04/18 14:10:01;;;;;;;8.03;4.15;;;;;;;;;;1732536;81;21461;-78
2022/04/18 14:12:29;;;;;;;8.45;4.20;;;;;;;;;;1730055;82;21076;-78
2022/04/18 14:20:28;;;;;;;16.12;5.00;;;;;;;;;;1715074;83;21001;-78
2022/04/18 14:22:56;;;;;;;13.03;5.53;;;;;;;;;;1724790;82;21509;-77
2022/04/18 14:25:25;;;;;;;10.00;4.45;;;;;;;;;;1739406;82;21075;-78
2022/04/18 14:27:51;;;;;;;8.90;3.37;;;;;;;;;;1731689;82;21631;-79
2022/04/18 14:30:18;;;;;;;5.22;3.02;;;;;;;;;;1737715;81;21020;-78
2022/04/18 14:32:44;;;;;;;5.85;3.05;;;;;;;;;;1732353;83;21020;-77
2022/04/18 14:35:12;;;;;;;7.87;3.02;;;;;;;;;;1744595;81;21869;-76
2022/04/18 14:37:39;;;;;;;5.60;3.17;;;;;;;;;;1740267;81;21056;-78
2022/04/18 14:40:06;;;;;;;4.58;2.87;;;;;;;;;;1731228;83;21508;-77
2022/04/18 14:42:32;;;;;;;5.62;3.10;;;;;;;;;;1740929;81;21293;-77
2022/04/18 14:44:59;;;;;;;5.45;3.30;;;;;;;;;;1718851;82;21051;-77
2022/04/18 14:47:25;;;;;;;5.17;3.60;;;;;;;;;;1748419;81;21503;-77
2022/04/18 14:49:52;;;;;;;6.37;3.70;;;;;;;;;;1728106;82;22139;-76
2022/04/18 14:52:19;;;;;;;6.28;2.85;;;;;;;;;;1728771;83;21021;-77
2022/04/18 14:54:46;;;;;;;4.85;2.83;;;;;;;;;;1733874;83;21614;-77
2022/04/18 14:57:12;;;;;;;5.85;3.22;;;;;;;;;;1733269;83;21083;-77
2022/04/18 14:59:39;;;;;;;4.25;2.70;;;;;;;;;;1734172;83;21075;-79
2022/04/18 15:02:06;;;;;;;4.80;2.33;;;;;;;;;;1734385;81;21055;-78
2022/04/18 15:04:33;;;;;;;5.78;3.17;;;;;;;;;;1726018;81;21056;-78
2022/04/18 15:07:01;;;;;;;7.85;3.70;;;;;;;;;;1744696;81;21072;-78
2022/04/18 15:09:29;;;;;;;5.62;3.40;;;;;;;;;;1732252;81;21055;-77
2022/04/18 15:11:56;;;;;;;6.70;3.15;;;;;;;;;;1731840;82;21578;-77
2022/04/18 15:14:23;;;;;;;4.95;2.98;;;;;;;;;;1731964;82;21068;-77
2022/04/18 15:16:50;;;;;;;6.97;4.30;;;;;;;;;;1732946;83;21060;-77
2022/04/18 15:19:18;;;;;;;6.20;3.40;;;;;;;;;;1732723;82;21531;-77
2022/04/18 15:21:44;;;;;;;5.97;3.25;;;;;;;;;;1731137;83;21061;-78
2022/04/18 15:24:10;;;;;;;8.10;4.72;;;;;;;;;;1731028;82;21103;-78
2022/04/18 15:26:37;;;;;;;9.13;3.55;;;;;;;;;;1721236;83;21197;-77
2022/04/18 15:29:05;;;;;;;8.08;4.05;;;;;;;;;;1718423;83;21049;-76
2022/04/18 15:34:16;;;;;;;12.35;5.70;;;;;;;;;;1754079;82;21012;-77
2022/04/18 15:36:43;;;;;;;9.40;3.47;;;;;;;;;;1753203;82;21020;-77
2022/04/18 15:39:09;;;;;;;5.58;3.00;;;;;;;;;;1753706;82;21059;-77